createdAt,value
2023-12-14T00:01:19.098Z,5.25
2023-12-14T00:03:46.331Z,3.30
2023-12-14T00:06:14.664Z,3.63
2023-12-14T00:08:42.242Z,4.20
2023-12-14T00:11:12.060Z,3.60
2023-12-14T00:13:40.122Z,2.85
2023-12-14T00:16:08.808Z,3.42
2023-12-14T00:18:37.354Z,2.38
2023-12-14T00:21:05.186Z,2.97
2023-12-14T00:23:32.452Z,2.92
2023-12-14T00:25:59.566Z,2.92
2023-12-14T00:28:29.555Z,2.30
2023-12-14T00:33:25.334Z,2.75
2023-12-14T00:35:52.733Z,2.42
2023-12-14T00:38:19.886Z,3.00
2023-12-14T00:40:47.051Z,3.40
2023-12-14T00:43:14.541Z,3.35
2023-12-14T00:45:42.639Z,3.88
2023-12-14T00:48:09.882Z,3.03
2023-12-14T00:50:36.980Z,3.55
2023-12-14T00:53:04.272Z,3.17
2023-12-14T00:55:31.424Z,3.38
2023-12-14T00:57:58.940Z,3.15
2023-12-14T01:00:26.242Z,3.17
2023-12-14T01:02:53.326Z,3.50
2023-12-14T01:05:20.583Z,2.97
2023-12-14T01:07:47.753Z,3.50
2023-12-14T01:10:16.121Z,3.40
2023-12-14T01:12:43.211Z,5.20
2023-12-14T01:15:10.974Z,3.40
2023-12-14T01:17:38.905Z,4.40
2023-12-14T01:20:10.492Z,3.72
2023-12-14T01:22:38.079Z,4.30
2023-12-14T01:25:05.860Z,6.38
2023-12-14T01:27:32.930Z,4.63
2023-12-14T01:29:59.990Z,6.50
2023-12-14T01:32:27.201Z,4.97
2023-12-14T01:34:54.269Z,5.55
2023-12-14T01:37:21.406Z,4.97
2023-12-14T01:39:48.835Z,5.38
2023-12-14T01:42:15.927Z,7.18
2023-12-14T01:44:43.082Z,5.03
2023-12-14T01:47:10.933Z,7.30
2023-12-14T01:49:38.117Z,6.47
2023-12-14T01:52:05.696Z,5.63
2023-12-14T01:54:32.771Z,6.10
2023-12-14T01:57:00.480Z,10.00
2023-12-14T01:59:27.586Z,4.97
2023-12-14T02:01:57.789Z,6.70
2023-12-14T02:04:27.182Z,6.60
2023-12-14T02:06:54.250Z,6.75
2023-12-14T02:09:21.324Z,6.80
2023-12-14T02:11:48.407Z,8.63
2023-12-14T02:14:15.621Z,6.53
2023-12-14T02:16:43.018Z,6.13
2023-12-14T02:19:10.153Z,7.28
2023-12-14T02:21:37.314Z,6.78
2023-12-14T02:24:04.984Z,6.28
2023-12-14T02:26:32.106Z,6.35
2023-12-14T02:28:59.300Z,8.52
2023-12-14T02:31:26.496Z,6.55
2023-12-14T02:33:53.617Z,6.43
2023-12-14T02:36:20.768Z,6.00
2023-12-14T02:38:48.003Z,5.70
2023-12-14T02:41:15.263Z,7.22
2023-12-14T02:43:42.425Z,6.63
2023-12-14T02:46:10.109Z,7.70
2023-12-14T02:48:37.582Z,6.50
2023-12-14T02:51:05.186Z,6.72
2023-12-14T02:53:32.247Z,5.97
2023-12-14T02:56:03.358Z,5.40
2023-12-14T02:58:30.559Z,8.25
2023-12-14T03:00:57.777Z,8.23
2023-12-14T03:03:24.957Z,6.93
2023-12-14T03:05:52.183Z,5.78
2023-12-14T03:08:19.377Z,7.10
2023-12-14T03:10:46.486Z,8.07
2023-12-14T03:13:13.617Z,10.43
2023-12-14T03:15:43.733Z,6.72
2023-12-14T03:18:10.949Z,6.28
2023-12-14T03:20:38.235Z,6.40
2023-12-14T03:23:05.294Z,5.95
2023-12-14T03:25:32.448Z,5.80
2023-12-14T03:27:59.624Z,10.45
2023-12-14T03:30:28.015Z,6.60
2023-12-14T03:32:55.319Z,7.50
2023-12-14T03:35:23.181Z,6.72
2023-12-14T03:37:50.504Z,6.20
2023-12-14T03:40:17.626Z,7.78
2023-12-14T03:42:44.747Z,7.22
2023-12-14T03:45:12.110Z,7.35
2023-12-14T03:47:39.260Z,8.45
2023-12-14T03:50:07.667Z,6.22
2023-12-14T03:52:35.373Z,6.95
2023-12-14T03:55:02.875Z,6.78
2023-12-14T03:57:30.000Z,6.68
2023-12-14T03:59:57.145Z,7.07
2023-12-14T04:02:24.263Z,9.82
2023-12-14T04:04:51.662Z,7.22
2023-12-14T04:07:18.844Z,6.63
2023-12-14T04:09:46.852Z,6.63
2023-12-14T04:12:14.023Z,6.70
2023-12-14T04:14:41.111Z,5.90
2023-12-14T04:17:08.842Z,5.80
2023-12-14T04:19:36.034Z,6.20
2023-12-14T04:22:03.167Z,8.02
2023-12-14T04:24:31.330Z,6.65
2023-12-14T04:26:59.480Z,6.60
2023-12-14T04:29:26.519Z,7.45
2023-12-14T04:31:54.667Z,6.43
2023-12-14T04:34:21.951Z,7.55
2023-12-14T04:36:49.750Z,6.72
2023-12-14T04:39:17.900Z,7.75
2023-12-14T04:41:45.356Z,7.30
2023-12-14T04:44:13.011Z,8.43
2023-12-14T04:46:40.170Z,6.38
2023-12-14T04:49:07.321Z,7.05
2023-12-14T04:51:34.502Z,6.78
2023-12-14T04:54:01.562Z,8.00
2023-12-14T04:56:28.720Z,6.70
2023-12-14T04:58:55.999Z,7.10
2023-12-14T05:01:23.138Z,7.55
2023-12-14T05:03:50.260Z,7.75
2023-12-14T05:06:17.618Z,6.97
2023-12-14T05:08:44.742Z,8.05
2023-12-14T05:11:13.841Z,7.55
2023-12-14T05:13:41.643Z,7.47
2023-12-14T05:16:15.765Z,8.00
2023-12-14T05:18:42.913Z,10.70
2023-12-14T05:21:10.216Z,9.80
2023-12-14T05:23:37.361Z,9.20
2023-12-14T05:26:04.953Z,11.23
2023-12-14T05:28:32.040Z,13.63
2023-12-14T05:30:59.244Z,13.00
2023-12-14T05:33:26.397Z,12.60
2023-12-14T05:35:53.647Z,9.50
2023-12-14T05:38:20.775Z,8.57
2023-12-14T05:40:47.964Z,8.77
2023-12-14T05:43:15.070Z,10.35
2023-12-14T05:45:42.412Z,10.23
2023-12-14T05:48:09.758Z,10.38
2023-12-14T05:50:36.980Z,12.10
2023-12-14T05:53:04.127Z,10.05
2023-12-14T05:55:31.283Z,11.00
2023-12-14T05:57:58.672Z,10.27
2023-12-14T06:00:25.903Z,8.82
2023-12-14T06:02:53.057Z,8.82
2023-12-14T06:05:21.740Z,9.57
2023-12-14T06:07:48.999Z,11.65
2023-12-14T06:10:16.065Z,10.48
2023-12-14T06:12:43.211Z,11.77
2023-12-14T06:15:11.932Z,10.50
2023-12-14T06:17:40.442Z,10.82
2023-12-14T06:20:11.923Z,8.13
2023-12-14T06:25:06.928Z,8.15
2023-12-14T06:27:33.986Z,7.95
2023-12-14T06:30:01.016Z,12.48
2023-12-14T06:32:28.361Z,12.30
2023-12-14T06:34:55.491Z,11.63
2023-12-14T06:37:22.616Z,14.38
2023-12-14T06:39:49.752Z,14.40
2023-12-14T06:42:16.839Z,13.20
2023-12-14T06:44:43.972Z,13.43
2023-12-14T06:47:11.097Z,11.13
2023-12-14T06:49:38.310Z,13.50
2023-12-14T06:52:05.489Z,12.85
2023-12-14T06:54:32.586Z,16.33
2023-12-14T06:56:59.693Z,12.50
2023-12-14T06:59:26.789Z,12.60
2023-12-14T07:01:53.906Z,13.18
2023-12-14T07:04:21.082Z,11.20
2023-12-14T07:06:54.808Z,12.55
2023-12-14T07:09:21.968Z,12.15
2023-12-14T07:11:49.006Z,13.10
2023-12-14T07:14:16.185Z,10.80
2023-12-14T07:16:43.949Z,12.68
2023-12-14T07:19:12.482Z,12.52
2023-12-14T07:21:39.589Z,12.07
2023-12-14T07:24:07.055Z,13.48
2023-12-14T07:26:34.093Z,12.82
2023-12-14T07:29:01.227Z,16.20
2023-12-14T07:31:30.041Z,23.10
2023-12-14T07:33:58.096Z,23.05
2023-12-14T07:36:25.222Z,31.17
2023-12-14T07:38:55.429Z,19.70
2023-12-14T07:41:27.543Z,18.40
2023-12-14T07:43:54.742Z,13.93
2023-12-14T07:46:22.094Z,15.93
2023-12-14T07:48:49.221Z,13.32
2023-12-14T07:51:16.391Z,14.95
2023-12-14T07:53:43.964Z,18.85
2023-12-14T07:56:11.067Z,12.57
2023-12-14T07:58:38.366Z,12.95
2023-12-14T08:01:05.809Z,12.95
2023-12-14T08:03:32.960Z,12.88
2023-12-14T08:06:00.179Z,15.18
2023-12-14T08:08:27.410Z,14.73
2023-12-14T08:10:54.489Z,13.95
2023-12-14T08:13:21.674Z,14.93
2023-12-14T08:15:48.799Z,13.82
2023-12-14T08:18:15.974Z,14.27
2023-12-14T08:20:43.178Z,12.90
2023-12-14T08:23:10.317Z,15.27
2023-12-14T08:25:37.566Z,12.90
2023-12-14T08:28:05.825Z,14.35
2023-12-14T08:30:33.211Z,13.32
2023-12-14T08:33:00.412Z,12.38
2023-12-14T08:35:27.607Z,12.25
2023-12-14T08:37:54.780Z,11.93
2023-12-14T08:40:21.981Z,12.43
2023-12-14T08:42:49.631Z,12.23
2023-12-14T08:45:16.911Z,12.93
2023-12-14T08:47:44.257Z,13.45
2023-12-14T08:50:11.476Z,10.95
2023-12-14T08:52:39.236Z,11.70
2023-12-14T08:55:07.347Z,10.02
2023-12-14T08:57:34.448Z,12.70
2023-12-14T09:00:01.773Z,12.52
2023-12-14T09:02:28.951Z,11.70
2023-12-14T09:04:56.225Z,13.90
2023-12-14T09:07:23.367Z,11.90
2023-12-14T09:09:50.436Z,15.18
2023-12-14T09:12:17.624Z,11.30
2023-12-14T09:14:44.795Z,10.93
2023-12-14T09:17:11.979Z,9.05
2023-12-14T09:19:39.078Z,11.05
2023-12-14T09:22:06.356Z,11.68
2023-12-14T09:24:33.555Z,12.10
2023-12-14T09:27:00.828Z,11.68
2023-12-14T09:29:28.071Z,10.88
2023-12-14T09:31:55.895Z,10.60
2023-12-14T09:34:23.226Z,10.38
2023-12-14T09:36:50.356Z,11.07
2023-12-14T09:39:20.140Z,12.68
2023-12-14T09:41:48.291Z,9.23
2023-12-14T09:44:15.656Z,12.68
2023-12-14T09:46:50.204Z,12.77
2023-12-14T09:49:19.522Z,10.55
2023-12-14T09:51:47.882Z,12.35
2023-12-14T09:54:15.068Z,11.27
2023-12-14T09:56:48.845Z,11.02
2023-12-14T09:59:16.662Z,13.15
2023-12-14T10:01:45.804Z,8.75
2023-12-14T10:04:16.126Z,11.48
2023-12-14T10:06:46.057Z,10.52
2023-12-14T10:09:19.191Z,9.80
2023-12-14T10:11:46.620Z,13.75
2023-12-14T10:14:26.565Z,10.73
2023-12-14T10:17:02.699Z,7.30
2023-12-14T10:19:31.155Z,7.78
2023-12-14T10:21:58.544Z,9.13
2023-12-14T10:24:25.698Z,9.07
2023-12-14T10:26:53.381Z,7.93
2023-12-14T10:29:21.680Z,9.77
2023-12-14T10:31:51.135Z,7.10
2023-12-14T10:34:18.260Z,9.85
2023-12-14T10:36:47.324Z,8.02
2023-12-14T10:39:16.900Z,7.90
2023-12-14T10:41:54.776Z,7.78
2023-12-14T10:44:47.963Z,8.47
2023-12-14T10:47:16.916Z,6.80
2023-12-14T10:49:50.208Z,7.45
2023-12-14T10:52:19.555Z,6.57
2023-12-14T10:54:48.029Z,6.10
2023-12-14T10:57:15.276Z,6.88
2023-12-14T10:59:43.706Z,8.82
2023-12-14T11:02:11.930Z,6.47
2023-12-14T11:05:06.714Z,6.78
2023-12-14T11:07:56.290Z,6.78
2023-12-14T11:10:28.359Z,7.15
2023-12-14T11:13:04.542Z,9.65
2023-12-14T11:15:34.918Z,9.23
2023-12-14T11:18:11.875Z,6.55
2023-12-14T11:21:22.353Z,6.20
2023-12-14T11:23:52.191Z,6.45
2023-12-14T11:26:25.934Z,6.70
2023-12-14T11:28:53.996Z,6.00
2023-12-14T11:31:21.994Z,6.93
2023-12-14T11:33:49.368Z,6.35
2023-12-14T11:36:17.165Z,5.78
2023-12-14T11:38:45.264Z,6.90
2023-12-14T11:41:12.633Z,6.95
2023-12-14T11:43:44.737Z,5.50
2023-12-14T11:46:13.114Z,6.30
2023-12-14T11:48:40.541Z,6.82
2023-12-14T11:51:08.017Z,5.63
2023-12-14T11:53:39.648Z,4.85
2023-12-14T11:56:08.276Z,7.90
2023-12-14T11:58:35.860Z,6.13
2023-12-14T12:01:20.366Z,7.25
2023-12-14T12:03:48.083Z,6.03
2023-12-14T12:06:31.599Z,6.20
2023-12-14T12:08:59.919Z,6.72
2023-12-14T12:11:28.687Z,6.82
2023-12-14T12:13:58.417Z,6.70
2023-12-14T12:16:26.291Z,6.65
2023-12-14T12:18:53.971Z,7.05
2023-12-14T12:21:21.327Z,6.25
2023-12-14T12:23:48.575Z,5.35
2023-12-14T12:26:16.293Z,8.25
2023-12-14T12:28:43.488Z,8.00
2023-12-14T12:31:10.693Z,6.00
2023-12-14T12:33:39.393Z,5.30
2023-12-14T12:36:07.658Z,6.82
2023-12-14T12:38:34.920Z,7.05
2023-12-14T12:41:03.192Z,7.43
2023-12-14T12:43:30.459Z,8.00
2023-12-14T12:45:59.599Z,7.03
2023-12-14T12:48:28.152Z,6.57
2023-12-14T12:50:55.923Z,6.15
2023-12-14T12:53:23.285Z,7.43
2023-12-14T12:55:50.525Z,6.57
2023-12-14T12:58:17.765Z,9.43
2023-12-14T13:00:44.842Z,6.75
2023-12-14T13:03:12.035Z,6.47
2023-12-14T13:05:39.399Z,8.32
2023-12-14T13:08:06.698Z,7.63
2023-12-14T13:10:33.816Z,6.38
2023-12-14T13:13:01.063Z,5.90
2023-12-14T13:15:30.478Z,5.47
2023-12-14T13:17:58.605Z,6.55
2023-12-14T13:20:25.978Z,7.47
2023-12-14T13:22:54.364Z,8.02
2023-12-14T13:25:24.008Z,6.50
2023-12-14T13:27:51.244Z,6.07
2023-12-14T13:30:19.390Z,7.35
2023-12-14T13:32:47.406Z,6.13
2023-12-14T13:35:15.186Z,6.05
2023-12-14T13:37:42.560Z,6.82
2023-12-14T13:40:13.191Z,6.00
2023-12-14T13:45:22.308Z,5.07
2023-12-14T13:47:49.477Z,5.30
2023-12-14T13:50:16.660Z,5.95
2023-12-14T13:52:44.608Z,5.72
2023-12-14T13:55:11.698Z,5.45
2023-12-14T13:57:38.841Z,6.70
2023-12-14T14:00:07.194Z,6.00
2023-12-14T14:02:35.080Z,7.47
2023-12-14T14:05:02.562Z,4.68
2023-12-14T14:07:29.725Z,6.97
2023-12-14T14:09:56.815Z,5.70
2023-12-14T14:12:24.003Z,6.00
2023-12-14T14:14:51.293Z,6.25
2023-12-14T14:17:18.484Z,5.53
2023-12-14T14:19:45.637Z,6.32
2023-12-14T14:22:12.711Z,6.25
2023-12-14T14:24:39.766Z,5.10
2023-12-14T14:27:07.011Z,7.60
2023-12-14T14:29:34.108Z,5.13
2023-12-14T14:32:01.346Z,5.25
2023-12-14T14:34:28.627Z,5.00
2023-12-14T14:36:55.737Z,5.57
2023-12-14T14:39:23.140Z,6.60
2023-12-14T14:41:50.266Z,4.63
2023-12-14T14:44:17.370Z,6.18
2023-12-14T14:46:44.867Z,5.60
2023-12-14T14:49:12.151Z,5.55
2023-12-14T14:51:39.295Z,7.25
2023-12-14T14:54:06.405Z,5.15
2023-12-14T14:56:33.512Z,5.75
2023-12-14T14:59:00.610Z,5.55
2023-12-14T15:01:27.806Z,5.07
2023-12-14T15:03:54.907Z,5.63
2023-12-14T15:06:23.981Z,5.53
2023-12-14T15:08:51.093Z,6.75
2023-12-14T15:11:18.292Z,5.80
2023-12-14T15:13:45.722Z,5.68
2023-12-14T15:16:13.014Z,7.88
2023-12-14T15:18:42.783Z,5.25
2023-12-14T15:21:16.431Z,5.53
2023-12-14T15:23:45.280Z,6.00
2023-12-14T15:26:12.631Z,6.53
2023-12-14T15:28:40.153Z,6.18
2023-12-14T15:31:07.332Z,4.75
2023-12-14T15:33:34.593Z,5.07
2023-12-14T15:36:01.929Z,6.00
2023-12-14T15:38:29.797Z,5.00
2023-12-14T15:40:57.050Z,5.90
2023-12-14T15:43:24.248Z,8.63
2023-12-14T15:45:52.146Z,9.65
2023-12-14T15:48:19.435Z,6.32
2023-12-14T15:50:47.567Z,7.88
2023-12-14T15:53:14.990Z,8.57
2023-12-14T15:55:42.240Z,8.13
2023-12-14T15:58:12.347Z,6.28
2023-12-14T16:00:40.078Z,5.50
2023-12-14T16:03:09.300Z,51.83
2023-12-14T16:05:37.027Z,30.98
2023-12-14T16:08:04.499Z,30.23
2023-12-14T16:10:31.788Z,70.30
2023-12-14T16:12:58.893Z,92.00
2023-12-14T16:15:26.062Z,57.83
2023-12-14T16:17:53.559Z,36.00
2023-12-14T16:20:23.871Z,18.42
2023-12-14T16:22:51.863Z,15.00
2023-12-14T16:25:19.622Z,35.10
2023-12-14T16:27:49.558Z,27.38
2023-12-14T16:30:17.376Z,28.10
2023-12-14T16:32:44.786Z,13.93
2023-12-14T16:35:12.343Z,32.88
2023-12-14T16:37:39.470Z,36.33
2023-12-14T16:40:07.658Z,21.00
2023-12-14T16:42:35.045Z,13.13
2023-12-14T16:45:02.309Z,12.38
2023-12-14T16:47:29.469Z,28.10
2023-12-14T16:49:56.738Z,56.50
2023-12-14T16:52:23.802Z,16.20
2023-12-14T16:54:50.934Z,10.70
2023-12-14T16:57:18.083Z,11.10
2023-12-14T16:59:45.552Z,10.40
2023-12-14T17:02:14.145Z,8.57
2023-12-14T17:04:41.743Z,6.07
2023-12-14T17:07:08.818Z,6.53
2023-12-14T17:09:35.919Z,7.43
2023-12-14T17:12:04.085Z,9.98
2023-12-14T17:14:31.169Z,9.82
2023-12-14T17:16:59.512Z,8.32
2023-12-14T17:19:27.332Z,8.20
2023-12-14T17:21:55.095Z,8.88
2023-12-14T17:24:22.261Z,10.43
2023-12-14T17:26:49.367Z,9.02
2023-12-14T17:29:16.471Z,9.95
2023-12-14T17:31:44.708Z,10.70
2023-12-14T17:34:11.981Z,11.63
2023-12-14T17:36:42.984Z,7.97
2023-12-14T17:39:10.085Z,5.68
2023-12-14T17:41:37.212Z,9.30
2023-12-14T17:44:04.622Z,11.05
2023-12-14T17:46:31.686Z,10.20
2023-12-14T17:48:59.818Z,14.13
2023-12-14T17:51:29.903Z,12.43
2023-12-14T17:53:57.023Z,13.73
2023-12-14T17:56:24.194Z,13.45
2023-12-14T17:58:51.432Z,13.60
2023-12-14T18:01:18.612Z,13.23
2023-12-14T18:03:45.728Z,16.75
2023-12-14T18:06:12.856Z,15.77
2023-12-14T18:08:39.964Z,9.88
2023-12-14T18:11:07.412Z,11.40
2023-12-14T18:13:34.580Z,9.15
2023-12-14T18:16:03.475Z,12.18
2023-12-14T18:18:30.747Z,6.78
2023-12-14T18:20:58.149Z,6.65
2023-12-14T18:23:25.375Z,4.47
2023-12-14T18:25:52.472Z,6.30
2023-12-14T18:28:19.723Z,5.07
2023-12-14T18:30:47.056Z,5.90
2023-12-14T18:33:14.828Z,5.95
2023-12-14T18:35:42.309Z,3.25
2023-12-14T18:38:09.601Z,3.20
2023-12-14T18:40:36.921Z,3.83
2023-12-14T18:43:03.993Z,10.32
2023-12-14T18:45:31.258Z,4.45
2023-12-14T18:47:58.453Z,3.38
2023-12-14T18:50:25.700Z,2.90
2023-12-14T18:52:57.811Z,5.38
2023-12-14T18:55:25.539Z,3.80
2023-12-14T18:57:53.406Z,3.55
2023-12-14T19:00:20.717Z,2.83
2023-12-14T19:02:47.846Z,2.72
2023-12-14T19:05:15.613Z,3.13
2023-12-14T19:07:43.126Z,3.13
2023-12-14T19:10:11.055Z,2.83
2023-12-14T19:12:38.313Z,3.00
2023-12-14T19:15:07.307Z,2.97
2023-12-14T19:17:34.728Z,2.60
2023-12-14T19:20:02.393Z,3.38
2023-12-14T19:22:30.392Z,2.22
2023-12-14T19:24:57.494Z,2.40
2023-12-14T19:27:24.626Z,4.53
2023-12-14T19:29:51.714Z,3.58
2023-12-14T19:32:18.896Z,4.57
2023-12-14T19:34:46.143Z,2.92
2023-12-14T19:37:13.252Z,3.03
2023-12-14T19:39:40.315Z,2.65
2023-12-14T19:42:08.130Z,3.13
2023-12-14T19:44:35.284Z,3.92
2023-12-14T19:47:02.706Z,2.85
2023-12-14T19:49:30.065Z,3.28
2023-12-14T19:51:57.714Z,3.42
2023-12-14T19:54:24.816Z,2.92
2023-12-14T19:56:52.428Z,2.90
2023-12-14T19:59:20.437Z,2.92
2023-12-14T20:01:47.636Z,2.95
2023-12-14T20:04:17.537Z,4.32
2023-12-14T20:06:44.884Z,3.38
2023-12-14T20:09:11.993Z,3.17
2023-12-14T20:11:40.747Z,2.47
2023-12-14T20:14:09.202Z,3.13
2023-12-14T20:16:38.098Z,2.55
2023-12-14T20:19:05.270Z,3.13
2023-12-14T20:21:36.674Z,2.90
2023-12-14T20:24:04.108Z,2.95
2023-12-14T20:26:32.065Z,3.97
2023-12-14T20:28:59.898Z,2.50
2023-12-14T20:31:27.523Z,2.40
2023-12-14T20:33:55.398Z,2.35
2023-12-14T20:36:22.479Z,2.20
2023-12-14T20:38:49.522Z,2.47
2023-12-14T20:41:16.892Z,6.15
2023-12-14T20:43:44.124Z,5.57
2023-12-14T20:46:11.280Z,2.97
2023-12-14T20:48:40.864Z,3.40
2023-12-14T20:51:08.325Z,2.65
2023-12-14T20:53:35.482Z,2.50
2023-12-14T20:56:02.597Z,2.55
2023-12-14T20:58:31.702Z,2.63
2023-12-14T21:00:58.816Z,2.45
2023-12-14T21:03:26.013Z,2.97
2023-12-14T21:05:53.400Z,2.58
2023-12-14T21:08:20.648Z,2.25
2023-12-14T21:10:47.957Z,2.53
2023-12-14T21:13:15.089Z,2.05
2023-12-14T21:15:42.188Z,2.55
2023-12-14T21:18:09.521Z,2.28
2023-12-14T21:20:36.825Z,2.65
2023-12-14T21:23:04.238Z,2.17
2023-12-14T21:25:39.420Z,3.30
2023-12-14T21:28:07.489Z,2.58
2023-12-14T21:30:35.836Z,2.63
2023-12-14T21:33:04.255Z,2.67
2023-12-14T21:35:31.648Z,3.00
2023-12-14T21:37:58.881Z,2.65
2023-12-14T21:40:26.059Z,2.50
2023-12-14T21:42:53.155Z,4.28
2023-12-14T21:45:20.360Z,2.97
2023-12-14T21:47:47.542Z,4.18
2023-12-14T21:50:14.776Z,2.47
2023-12-14T21:52:42.026Z,2.63
2023-12-14T21:55:09.512Z,2.83
2023-12-14T21:57:36.772Z,3.25
2023-12-14T22:00:04.917Z,3.40
2023-12-14T22:02:32.073Z,3.22
2023-12-14T22:04:59.238Z,3.45
2023-12-14T22:07:26.354Z,3.00
2023-12-14T22:09:53.495Z,3.90
2023-12-14T22:12:21.033Z,3.00
2023-12-14T22:14:48.234Z,3.85
2023-12-14T22:17:15.326Z,3.58
2023-12-14T22:19:42.475Z,3.88
2023-12-14T22:22:09.644Z,4.15
2023-12-14T22:24:36.798Z,4.63
2023-12-14T22:27:04.132Z,5.22
2023-12-14T22:29:31.432Z,5.95
2023-12-14T22:32:00.138Z,5.68
2023-12-14T22:34:27.328Z,5.53
2023-12-14T22:36:54.453Z,5.97
2023-12-14T22:39:21.549Z,6.13
2023-12-14T22:41:48.743Z,6.05
2023-12-14T22:44:15.993Z,7.82
2023-12-14T22:46:43.221Z,5.72
2023-12-14T22:49:10.503Z,6.68
2023-12-14T22:51:38.296Z,7.63
2023-12-14T22:54:05.824Z,6.32
2023-12-14T22:56:33.400Z,6.38
2023-12-14T22:59:00.830Z,5.10
2023-12-14T23:01:33.306Z,5.47
2023-12-14T23:04:04.155Z,6.25
2023-12-14T23:06:35.488Z,6.38
2023-12-14T23:09:04.674Z,4.32
2023-12-14T23:11:31.845Z,5.68
2023-12-14T23:13:59.277Z,4.82
2023-12-14T23:16:26.745Z,4.68
2023-12-14T23:18:54.064Z,5.90
2023-12-14T23:21:21.308Z,4.60
2023-12-14T23:23:50.464Z,4.43
2023-12-14T23:26:17.617Z,4.20
2023-12-14T23:28:44.779Z,5.05
2023-12-14T23:31:11.837Z,4.07
2023-12-14T23:33:39.073Z,4.60
2023-12-14T23:36:06.960Z,3.95
2023-12-14T23:38:34.082Z,5.22
2023-12-14T23:41:01.337Z,6.10
2023-12-14T23:43:28.614Z,4.90
2023-12-14T23:45:55.794Z,5.40
2023-12-14T23:48:23.008Z,4.70
2023-12-14T23:50:50.168Z,4.20
2023-12-14T23:53:17.291Z,4.65
2023-12-14T23:55:44.378Z,4.07
2023-12-14T23:58:11.523Z,3.72
